sensor_id;sensor_type;location;lat;lon;timestamp;temperature;humidity
52513;DHT22;38422;53.172;6.974;2023-04-03T00:01:11;5.50;98.40
52513;DHT22;38422;53.172;6.974;2023-04-03T00:03:37;5.40;98.60
52513;DHT22;38422;53.172;6.974;2023-04-03T00:06:03;5.40;98.70
52513;DHT22;38422;53.172;6.974;2023-04-03T00:08:29;5.30;98.80
52513;DHT22;38422;53.172;6.974;2023-04-03T00:10:58;5.30;99.00
52513;DHT22;38422;53.172;6.974;2023-04-03T00:13:24;5.30;99.20
52513;DHT22;38422;53.172;6.974;2023-04-03T00:15:51;5.30;99.30
52513;DHT22;38422;53.172;6.974;2023-04-03T00:18:17;5.30;99.50
52513;DHT22;38422;53.172;6.974;2023-04-03T00:20:43;5.30;99.60
52513;DHT22;38422;53.172;6.974;2023-04-03T00:23:09;5.20;99.70
52513;DHT22;38422;53.172;6.974;2023-04-03T00:25:35;5.20;99.80
52513;DHT22;38422;53.172;6.974;2023-04-03T00:28:02;5.20;99.80
52513;DHT22;38422;53.172;6.974;2023-04-03T00:30:27;5.20;99.90
52513;DHT22;38422;53.172;6.974;2023-04-03T00:32:53;5.20;99.90
52513;DHT22;38422;53.172;6.974;2023-04-03T00:35:20;5.10;99.90
52513;DHT22;38422;53.172;6.974;2023-04-03T00:37:46;5.10;99.90
52513;DHT22;38422;53.172;6.974;2023-04-03T00:40:14;5.00;99.90
52513;DHT22;38422;53.172;6.974;2023-04-03T00:42:40;5.00;99.90
52513;DHT22;38422;53.172;6.974;2023-04-03T00:47:50;4.90;99.90
52513;DHT22;38422;53.172;6.974;2023-04-03T00:50:17;4.90;99.90
52513;DHT22;38422;53.172;6.974;2023-04-03T00:52:45;4.90;99.90
52513;DHT22;38422;53.172;6.974;2023-04-03T00:55:14;4.90;99.90
52513;DHT22;38422;53.172;6.974;2023-04-03T00:57:41;4.80;99.90
52513;DHT22;38422;53.172;6.974;2023-04-03T01:00:11;4.80;99.90
52513;DHT22;38422;53.172;6.974;2023-04-03T01:02:38;4.80;99.90
52513;DHT22;38422;53.172;6.974;2023-04-03T01:05:07;4.80;99.90
52513;DHT22;38422;53.172;6.974;2023-04-03T01:07:33;4.70;99.90
52513;DHT22;38422;53.172;6.974;2023-04-03T01:10:04;4.70;99.90
52513;DHT22;38422;53.172;6.974;2023-04-03T01:12:34;4.70;99.90
52513;DHT22;38422;53.172;6.974;2023-04-03T01:15:12;4.70;99.90
52513;DHT22;38422;53.172;6.974;2023-04-03T01:25:51;4.60;99.90
52513;DHT22;38422;53.172;6.974;2023-04-03T01:28:27;4.60;99.90
52513;DHT22;38422;53.172;6.974;2023-04-03T01:33:35;4.50;99.90
52513;DHT22;38422;53.172;6.974;2023-04-03T01:36:01;4.50;99.90
52513;DHT22;38422;53.172;6.974;2023-04-03T01:38:27;4.50;99.90
52513;DHT22;38422;53.172;6.974;2023-04-03T01:40:53;4.40;99.90
52513;DHT22;38422;53.172;6.974;2023-04-03T01:43:18;4.40;99.90
52513;DHT22;38422;53.172;6.974;2023-04-03T01:45:44;4.40;99.90
52513;DHT22;38422;53.172;6.974;2023-04-03T01:48:12;4.40;99.90
52513;DHT22;38422;53.172;6.974;2023-04-03T01:50:39;4.30;99.90
52513;DHT22;38422;53.172;6.974;2023-04-03T01:53:04;4.30;99.90
52513;DHT22;38422;53.172;6.974;2023-04-03T01:55:30;4.30;99.90
52513;DHT22;38422;53.172;6.974;2023-04-03T01:57:56;4.30;99.90
52513;DHT22;38422;53.172;6.974;2023-04-03T02:00:21;4.20;99.90
52513;DHT22;38422;53.172;6.974;2023-04-03T02:02:47;4.20;99.90
52513;DHT22;38422;53.172;6.974;2023-04-03T02:05:13;4.20;99.90
52513;DHT22;38422;53.172;6.974;2023-04-03T02:07:38;4.20;99.90
52513;DHT22;38422;53.172;6.974;2023-04-03T02:10:05;4.20;99.90
52513;DHT22;38422;53.172;6.974;2023-04-03T02:12:30;4.10;99.90
52513;DHT22;38422;53.172;6.974;2023-04-03T02:14:56;4.10;99.90
52513;DHT22;38422;53.172;6.974;2023-04-03T02:17:22;4.10;99.90
52513;DHT22;38422;53.172;6.974;2023-04-03T02:19:48;4.00;99.90
52513;DHT22;38422;53.172;6.974;2023-04-03T02:22:13;4.00;99.90
52513;DHT22;38422;53.172;6.974;2023-04-03T02:24:39;4.00;99.90
52513;DHT22;38422;53.172;6.974;2023-04-03T02:27:08;4.00;99.90
52513;DHT22;38422;53.172;6.974;2023-04-03T02:29:34;3.90;99.90
52513;DHT22;38422;53.172;6.974;2023-04-03T02:32:00;3.90;99.90
52513;DHT22;38422;53.172;6.974;2023-04-03T02:34:25;3.90;99.90
52513;DHT22;38422;53.172;6.974;2023-04-03T02:36:51;3.90;99.90
52513;DHT22;38422;53.172;6.974;2023-04-03T02:39:17;3.90;99.90
52513;DHT22;38422;53.172;6.974;2023-04-03T02:41:42;3.90;99.90
52513;DHT22;38422;53.172;6.974;2023-04-03T02:44:09;3.80;99.90
52513;DHT22;38422;53.172;6.974;2023-04-03T02:46:35;3.80;99.90
52513;DHT22;38422;53.172;6.974;2023-04-03T02:49:01;3.90;99.90
52513;DHT22;38422;53.172;6.974;2023-04-03T02:51:27;3.80;99.90
52513;DHT22;38422;53.172;6.974;2023-04-03T02:53:53;3.90;99.90
52513;DHT22;38422;53.172;6.974;2023-04-03T02:56:18;3.80;99.90
52513;DHT22;38422;53.172;6.974;2023-04-03T02:58:45;3.80;99.90
52513;DHT22;38422;53.172;6.974;2023-04-03T03:01:11;3.80;99.90
52513;DHT22;38422;53.172;6.974;2023-04-03T03:03:37;3.70;99.90
52513;DHT22;38422;53.172;6.974;2023-04-03T03:06:13;3.70;99.90
52513;DHT22;38422;53.172;6.974;2023-04-03T03:08:40;3.70;99.90
52513;DHT22;38422;53.172;6.974;2023-04-03T03:11:06;3.60;99.90
52513;DHT22;38422;53.172;6.974;2023-04-03T03:13:32;3.60;99.90
52513;DHT22;38422;53.172;6.974;2023-04-03T03:15:58;3.60;99.90
52513;DHT22;38422;53.172;6.974;2023-04-03T03:18:23;3.60;99.90
52513;DHT22;38422;53.172;6.974;2023-04-03T03:20:53;3.50;99.90
52513;DHT22;38422;53.172;6.974;2023-04-03T03:23:19;3.50;99.90
52513;DHT22;38422;53.172;6.974;2023-04-03T03:25:45;3.50;99.90
52513;DHT22;38422;53.172;6.974;2023-04-03T03:28:11;3.50;99.90
52513;DHT22;38422;53.172;6.974;2023-04-03T03:30:37;3.50;99.90
52513;DHT22;38422;53.172;6.974;2023-04-03T03:33:03;3.40;99.90
52513;DHT22;38422;53.172;6.974;2023-04-03T03:35:29;3.40;99.90
52513;DHT22;38422;53.172;6.974;2023-04-03T03:37:55;3.40;99.90
52513;DHT22;38422;53.172;6.974;2023-04-03T03:40:20;3.40;99.90
52513;DHT22;38422;53.172;6.974;2023-04-03T03:42:46;3.30;99.90
52513;DHT22;38422;53.172;6.974;2023-04-03T03:45:12;3.10;99.90
52513;DHT22;38422;53.172;6.974;2023-04-03T03:47:38;3.10;99.90
52513;DHT22;38422;53.172;6.974;2023-04-03T03:50:04;3.10;99.90
52513;DHT22;38422;53.172;6.974;2023-04-03T03:52:30;3.10;99.90
52513;DHT22;38422;53.172;6.974;2023-04-03T03:54:56;3.10;99.90
52513;DHT22;38422;53.172;6.974;2023-04-03T03:57:22;3.10;99.90
52513;DHT22;38422;53.172;6.974;2023-04-03T03:59:47;3.10;99.90
52513;DHT22;38422;53.172;6.974;2023-04-03T04:02:14;3.00;99.90
52513;DHT22;38422;53.172;6.974;2023-04-03T04:04:40;3.00;99.90
52513;DHT22;38422;53.172;6.974;2023-04-03T04:07:06;3.00;99.90
52513;DHT22;38422;53.172;6.974;2023-04-03T04:09:31;3.00;99.90
52513;DHT22;38422;53.172;6.974;2023-04-03T04:11:57;3.00;99.90
52513;DHT22;38422;53.172;6.974;2023-04-03T04:14:23;3.00;99.90
52513;DHT22;38422;53.172;6.974;2023-04-03T04:16:49;3.00;99.90
52513;DHT22;38422;53.172;6.974;2023-04-03T04:19:15;3.00;99.90
52513;DHT22;38422;53.172;6.974;2023-04-03T04:21:40;3.00;99.90
52513;DHT22;38422;53.172;6.974;2023-04-03T04:24:07;3.00;99.90
52513;DHT22;38422;53.172;6.974;2023-04-03T04:26:33;3.00;99.90
52513;DHT22;38422;53.172;6.974;2023-04-03T04:28:59;3.00;99.90
52513;DHT22;38422;53.172;6.974;2023-04-03T04:31:25;3.00;99.90
52513;DHT22;38422;53.172;6.974;2023-04-03T04:33:51;3.00;99.90
52513;DHT22;38422;53.172;6.974;2023-04-03T04:36:17;3.00;99.90
52513;DHT22;38422;53.172;6.974;2023-04-03T04:38:42;3.00;99.90
52513;DHT22;38422;53.172;6.974;2023-04-03T04:41:08;3.00;99.90
52513;DHT22;38422;53.172;6.974;2023-04-03T04:43:34;3.00;99.90
52513;DHT22;38422;53.172;6.974;2023-04-03T04:46:05;3.00;99.90
52513;DHT22;38422;53.172;6.974;2023-04-03T04:48:31;2.90;99.90
52513;DHT22;38422;53.172;6.974;2023-04-03T04:50:56;2.90;99.90
52513;DHT22;38422;53.172;6.974;2023-04-03T04:53:22;2.90;99.90
52513;DHT22;38422;53.172;6.974;2023-04-03T04:55:48;2.90;99.90
52513;DHT22;38422;53.172;6.974;2023-04-03T04:58:14;2.80;99.90
52513;DHT22;38422;53.172;6.974;2023-04-03T05:00:40;2.80;99.90
52513;DHT22;38422;53.172;6.974;2023-04-03T05:03:05;2.80;99.90
52513;DHT22;38422;53.172;6.974;2023-04-03T05:05:31;2.70;99.90
52513;DHT22;38422;53.172;6.974;2023-04-03T05:07:57;2.70;99.90
52513;DHT22;38422;53.172;6.974;2023-04-03T05:10:23;2.70;99.90
52513;DHT22;38422;53.172;6.974;2023-04-03T05:12:48;2.60;99.90
52513;DHT22;38422;53.172;6.974;2023-04-03T05:15:14;2.60;99.90
52513;DHT22;38422;53.172;6.974;2023-04-03T05:17:40;2.60;99.90
52513;DHT22;38422;53.172;6.974;2023-04-03T05:20:06;2.60;99.90
52513;DHT22;38422;53.172;6.974;2023-04-03T05:22:32;2.60;99.90
52513;DHT22;38422;53.172;6.974;2023-04-03T05:24:58;2.60;99.90
52513;DHT22;38422;53.172;6.974;2023-04-03T05:27:24;2.60;99.90
52513;DHT22;38422;53.172;6.974;2023-04-03T05:29:50;2.60;99.90
52513;DHT22;38422;53.172;6.974;2023-04-03T05:32:16;2.60;99.90
52513;DHT22;38422;53.172;6.974;2023-04-03T05:34:42;2.60;99.90
52513;DHT22;38422;53.172;6.974;2023-04-03T05:37:07;2.60;99.90
52513;DHT22;38422;53.172;6.974;2023-04-03T05:39:36;2.50;99.90
52513;DHT22;38422;53.172;6.974;2023-04-03T05:42:03;2.50;99.90
52513;DHT22;38422;53.172;6.974;2023-04-03T05:44:30;2.50;99.90
52513;DHT22;38422;53.172;6.974;2023-04-03T05:46:55;2.60;99.90
52513;DHT22;38422;53.172;6.974;2023-04-03T05:49:22;2.60;99.90
52513;DHT22;38422;53.172;6.974;2023-04-03T05:51:48;2.60;99.90
52513;DHT22;38422;53.172;6.974;2023-04-03T05:54:26;2.60;99.90
52513;DHT22;38422;53.172;6.974;2023-04-03T05:56:53;2.60;99.90
52513;DHT22;38422;53.172;6.974;2023-04-03T05:59:19;2.60;99.90
52513;DHT22;38422;53.172;6.974;2023-04-03T06:01:45;2.60;99.90
52513;DHT22;38422;53.172;6.974;2023-04-03T06:04:12;2.60;99.90
52513;DHT22;38422;53.172;6.974;2023-04-03T06:06:53;2.70;99.90
52513;DHT22;38422;53.172;6.974;2023-04-03T06:09:21;2.70;99.90
52513;DHT22;38422;53.172;6.974;2023-04-03T06:11:47;2.70;99.90
52513;DHT22;38422;53.172;6.974;2023-04-03T06:14:13;2.80;99.90
52513;DHT22;38422;53.172;6.974;2023-04-03T06:24:24;2.80;99.90
52513;DHT22;38422;53.172;6.974;2023-04-03T06:26:51;2.80;99.90
52513;DHT22;38422;53.172;6.974;2023-04-03T06:29:18;2.80;99.90
52513;DHT22;38422;53.172;6.974;2023-04-03T06:31:45;2.80;99.90
52513;DHT22;38422;53.172;6.974;2023-04-03T06:34:11;2.90;99.90
52513;DHT22;38422;53.172;6.974;2023-04-03T06:36:38;2.90;99.90
52513;DHT22;38422;53.172;6.974;2023-04-03T06:39:04;2.90;99.90
52513;DHT22;38422;53.172;6.974;2023-04-03T06:41:30;2.90;99.90
52513;DHT22;38422;53.172;6.974;2023-04-03T06:43:56;2.90;99.90
52513;DHT22;38422;53.172;6.974;2023-04-03T06:46:24;2.90;99.90
52513;DHT22;38422;53.172;6.974;2023-04-03T06:48:50;3.00;99.90
52513;DHT22;38422;53.172;6.974;2023-04-03T06:51:26;2.90;99.90
52513;DHT22;38422;53.172;6.974;2023-04-03T06:53:56;2.90;99.90
52513;DHT22;38422;53.172;6.974;2023-04-03T06:56:22;2.90;99.90
52513;DHT22;38422;53.172;6.974;2023-04-03T06:58:48;2.90;99.90
52513;DHT22;38422;53.172;6.974;2023-04-03T07:01:16;2.90;99.90
52513;DHT22;38422;53.172;6.974;2023-04-03T07:03:43;3.00;99.90
52513;DHT22;38422;53.172;6.974;2023-04-03T07:06:13;3.00;99.90
52513;DHT22;38422;53.172;6.974;2023-04-03T07:08:39;3.10;99.90
52513;DHT22;38422;53.172;6.974;2023-04-03T07:11:06;3.10;99.90
52513;DHT22;38422;53.172;6.974;2023-04-03T07:13:32;3.20;99.90
52513;DHT22;38422;53.172;6.974;2023-04-03T07:15:58;3.20;99.90
52513;DHT22;38422;53.172;6.974;2023-04-03T07:18:24;3.30;99.90
52513;DHT22;38422;53.172;6.974;2023-04-03T07:20:50;3.30;99.90
52513;DHT22;38422;53.172;6.974;2023-04-03T07:23:16;3.30;99.90
52513;DHT22;38422;53.172;6.974;2023-04-03T07:25:46;3.30;99.90
52513;DHT22;38422;53.172;6.974;2023-04-03T07:28:12;3.40;99.90
52513;DHT22;38422;53.172;6.974;2023-04-03T07:30:53;3.40;99.90
52513;DHT22;38422;53.172;6.974;2023-04-03T07:33:21;3.40;99.90
52513;DHT22;38422;53.172;6.974;2023-04-03T07:35:48;3.50;99.90
52513;DHT22;38422;53.172;6.974;2023-04-03T07:38:13;3.40;99.90
52513;DHT22;38422;53.172;6.974;2023-04-03T07:40:39;3.50;99.90
52513;DHT22;38422;53.172;6.974;2023-04-03T07:43:06;3.50;99.90
52513;DHT22;38422;53.172;6.974;2023-04-03T07:45:34;3.60;99.90
52513;DHT22;38422;53.172;6.974;2023-04-03T07:48:00;3.60;99.90
52513;DHT22;38422;53.172;6.974;2023-04-03T07:50:26;3.70;99.90
52513;DHT22;38422;53.172;6.974;2023-04-03T07:52:52;3.80;99.90
52513;DHT22;38422;53.172;6.974;2023-04-03T07:55:20;3.80;99.90
52513;DHT22;38422;53.172;6.974;2023-04-03T07:57:45;3.90;99.90
52513;DHT22;38422;53.172;6.974;2023-04-03T08:00:12;4.00;99.90
52513;DHT22;38422;53.172;6.974;2023-04-03T08:02:38;4.00;99.90
52513;DHT22;38422;53.172;6.974;2023-04-03T08:05:04;4.10;99.90
52513;DHT22;38422;53.172;6.974;2023-04-03T08:07:30;4.20;99.90
52513;DHT22;38422;53.172;6.974;2023-04-03T08:09:55;4.20;99.90
52513;DHT22;38422;53.172;6.974;2023-04-03T08:12:22;4.30;99.90
52513;DHT22;38422;53.172;6.974;2023-04-03T08:14:48;4.40;99.90
52513;DHT22;38422;53.172;6.974;2023-04-03T08:17:13;4.50;99.90
52513;DHT22;38422;53.172;6.974;2023-04-03T08:19:40;4.50;99.90
52513;DHT22;38422;53.172;6.974;2023-04-03T08:22:06;4.60;99.90
52513;DHT22;38422;53.172;6.974;2023-04-03T08:24:33;4.60;99.90
52513;DHT22;38422;53.172;6.974;2023-04-03T08:26:59;4.70;99.90
52513;DHT22;38422;53.172;6.974;2023-04-03T08:29:25;4.70;99.90
52513;DHT22;38422;53.172;6.974;2023-04-03T08:31:51;4.80;99.90
52513;DHT22;38422;53.172;6.974;2023-04-03T08:34:18;4.90;99.90
52513;DHT22;38422;53.172;6.974;2023-04-03T08:36:44;5.00;99.90
52513;DHT22;38422;53.172;6.974;2023-04-03T08:39:11;5.10;99.90
52513;DHT22;38422;53.172;6.974;2023-04-03T08:41:44;5.20;99.90
52513;DHT22;38422;53.172;6.974;2023-04-03T08:52:19;5.60;99.90
52513;DHT22;38422;53.172;6.974;2023-04-03T08:54:57;5.60;99.90
52513;DHT22;38422;53.172;6.974;2023-04-03T08:58:02;5.70;99.90
52513;DHT22;38422;53.172;6.974;2023-04-03T09:00:25;5.80;99.90
52513;DHT22;38422;53.172;6.974;2023-04-03T09:02:56;5.90;99.90
52513;DHT22;38422;53.172;6.974;2023-04-03T09:05:55;6.00;99.90
52513;DHT22;38422;53.172;6.974;2023-04-03T09:08:37;6.10;99.90
52513;DHT22;38422;53.172;6.974;2023-04-03T09:11:24;6.20;99.90
52513;DHT22;38422;53.172;6.974;2023-04-03T09:14:07;6.30;99.90
52513;DHT22;38422;53.172;6.974;2023-04-03T09:22:23;6.70;99.90
52513;DHT22;38422;53.172;6.974;2023-04-03T09:25:04;6.80;99.90
52513;DHT22;38422;53.172;6.974;2023-04-03T09:27:31;6.90;99.70
52513;DHT22;38422;53.172;6.974;2023-04-03T09:29:57;7.10;99.90
52513;DHT22;38422;53.172;6.974;2023-04-03T09:32:36;7.30;99.90
52513;DHT22;38422;53.172;6.974;2023-04-03T09:37:48;7.60;99.90
52513;DHT22;38422;53.172;6.974;2023-04-03T09:40:36;7.80;99.30
52513;DHT22;38422;53.172;6.974;2023-04-03T09:43:20;7.90;96.70
52513;DHT22;38422;53.172;6.974;2023-04-03T09:45:48;8.20;97.90
52513;DHT22;38422;53.172;6.974;2023-04-03T09:53:41;8.80;94.20
52513;DHT22;38422;53.172;6.974;2023-04-03T09:58:44;9.10;91.10
52513;DHT22;38422;53.172;6.974;2023-04-03T10:01:36;9.30;92.70
52513;DHT22;38422;53.172;6.974;2023-04-03T10:04:12;9.60;91.00
52513;DHT22;38422;53.172;6.974;2023-04-03T10:06:41;9.90;92.00
52513;DHT22;38422;53.172;6.974;2023-04-03T10:12:08;10.10;90.10
52513;DHT22;38422;53.172;6.974;2023-04-03T10:14:40;10.40;85.60
52513;DHT22;38422;53.172;6.974;2023-04-03T10:17:25;10.60;83.00
52513;DHT22;38422;53.172;6.974;2023-04-03T10:25:35;10.90;79.90
52513;DHT22;38422;53.172;6.974;2023-04-03T10:28:19;11.10;74.70
52513;DHT22;38422;53.172;6.974;2023-04-03T10:44:38;12.20;72.10
52513;DHT22;38422;53.172;6.974;2023-04-03T10:50:29;12.50;65.50
52513;DHT22;38422;53.172;6.974;2023-04-03T10:58:29;12.70;63.60
52513;DHT22;38422;53.172;6.974;2023-04-03T11:01:02;12.70;67.40
52513;DHT22;38422;53.172;6.974;2023-04-03T11:03:48;12.90;66.50
52513;DHT22;38422;53.172;6.974;2023-04-03T11:06:16;13.00;60.00
52513;DHT22;38422;53.172;6.974;2023-04-03T11:09:05;13.10;65.70
52513;DHT22;38422;53.172;6.974;2023-04-03T11:11:36;13.30;64.50
52513;DHT22;38422;53.172;6.974;2023-04-03T11:16:55;13.70;63.50
52513;DHT22;38422;53.172;6.974;2023-04-03T11:19:35;13.80;62.00
52513;DHT22;38422;53.172;6.974;2023-04-03T11:22:22;14.00;61.90
52513;DHT22;38422;53.172;6.974;2023-04-03T11:28:00;14.20;60.00
52513;DHT22;38422;53.172;6.974;2023-04-03T11:35:45;14.40;62.60
52513;DHT22;38422;53.172;6.974;2023-04-03T11:38:25;14.60;60.90
52513;DHT22;38422;53.172;6.974;2023-04-03T11:40:54;14.70;61.10
52513;DHT22;38422;53.172;6.974;2023-04-03T11:43:22;14.90;61.00
52513;DHT22;38422;53.172;6.974;2023-04-03T11:46:01;15.00;59.80
52513;DHT22;38422;53.172;6.974;2023-04-03T11:50:54;15.10;59.40
52513;DHT22;38422;53.172;6.974;2023-04-03T11:53:35;15.00;58.40
52513;DHT22;38422;53.172;6.974;2023-04-03T12:01:56;15.00;56.00
52513;DHT22;38422;53.172;6.974;2023-04-03T12:04:25;15.10;57.00
52513;DHT22;38422;53.172;6.974;2023-04-03T12:07:13;15.40;57.50
52513;DHT22;38422;53.172;6.974;2023-04-03T12:15:22;15.40;53.40
52513;DHT22;38422;53.172;6.974;2023-04-03T12:17:48;15.20;54.00
52513;DHT22;38422;53.172;6.974;2023-04-03T12:23:32;15.30;54.30
52513;DHT22;38422;53.172;6.974;2023-04-03T12:26:08;15.50;55.30
52513;DHT22;38422;53.172;6.974;2023-04-03T12:28:45;15.50;56.10
52513;DHT22;38422;53.172;6.974;2023-04-03T12:31:12;15.80;56.30
52513;DHT22;38422;53.172;6.974;2023-04-03T12:34:11;16.00;56.50
52513;DHT22;38422;53.172;6.974;2023-04-03T12:39:59;16.30;55.60
52513;DHT22;38422;53.172;6.974;2023-04-03T12:42:32;16.40;52.10
52513;DHT22;38422;53.172;6.974;2023-04-03T12:45:14;16.50;54.80
52513;DHT22;38422;53.172;6.974;2023-04-03T12:47:42;16.40;52.40
52513;DHT22;38422;53.172;6.974;2023-04-03T12:50:25;16.60;54.80
52513;DHT22;38422;53.172;6.974;2023-04-03T12:53:12;16.80;53.70
52513;DHT22;38422;53.172;6.974;2023-04-03T12:55:39;16.80;52.20
52513;DHT22;38422;53.172;6.974;2023-04-03T12:58:27;16.80;54.30
52513;DHT22;38422;53.172;6.974;2023-04-03T13:01:04;17.00;52.90
52513;DHT22;38422;53.172;6.974;2023-04-03T13:03:38;16.50;51.70
52513;DHT22;38422;53.172;6.974;2023-04-03T13:06:05;16.60;53.30
52513;DHT22;38422;53.172;6.974;2023-04-03T13:08:31;16.60;53.80
52513;DHT22;38422;53.172;6.974;2023-04-03T13:11:11;16.70;53.50
52513;DHT22;38422;53.172;6.974;2023-04-03T13:13:37;16.90;52.80
52513;DHT22;38422;53.172;6.974;2023-04-03T13:16:11;17.00;53.10
52513;DHT22;38422;53.172;6.974;2023-04-03T13:18:37;17.10;51.90
52513;DHT22;38422;53.172;6.974;2023-04-03T13:21:15;16.90;51.90
52513;DHT22;38422;53.172;6.974;2023-04-03T13:23:45;17.10;52.40
52513;DHT22;38422;53.172;6.974;2023-04-03T13:26:12;17.00;52.00
52513;DHT22;38422;53.172;6.974;2023-04-03T13:28:42;17.00;52.10
52513;DHT22;38422;53.172;6.974;2023-04-03T13:31:23;17.00;52.40
52513;DHT22;38422;53.172;6.974;2023-04-03T13:34:19;17.30;51.50
52513;DHT22;38422;53.172;6.974;2023-04-03T13:36:50;17.50;53.30
52513;DHT22;38422;53.172;6.974;2023-04-03T13:39:30;17.70;53.00
52513;DHT22;38422;53.172;6.974;2023-04-03T13:41:58;17.80;53.20
52513;DHT22;38422;53.172;6.974;2023-04-03T13:44:36;18.00;53.60
52513;DHT22;38422;53.172;6.974;2023-04-03T13:49:37;18.20;52.00
52513;DHT22;38422;53.172;6.974;2023-04-03T13:52:29;18.20;50.70
52513;DHT22;38422;53.172;6.974;2023-04-03T13:54:59;18.20;50.50
52513;DHT22;38422;53.172;6.974;2023-04-03T13:57:26;18.20;51.70
52513;DHT22;38422;53.172;6.974;2023-04-03T13:59:52;18.30;52.60
52513;DHT22;38422;53.172;6.974;2023-04-03T14:02:28;18.30;51.90
52513;DHT22;38422;53.172;6.974;2023-04-03T14:04:56;18.30;50.60
52513;DHT22;38422;53.172;6.974;2023-04-03T14:07:26;18.20;51.00
52513;DHT22;38422;53.172;6.974;2023-04-03T14:09:52;18.20;51.50
52513;DHT22;38422;53.172;6.974;2023-04-03T14:12:29;18.30;51.40
52513;DHT22;38422;53.172;6.974;2023-04-03T14:14:56;18.30;49.50
52513;DHT22;38422;53.172;6.974;2023-04-03T14:17:24;18.30;49.90
52513;DHT22;38422;53.172;6.974;2023-04-03T14:19:51;18.30;49.60
52513;DHT22;38422;53.172;6.974;2023-04-03T14:22:21;18.20;49.70
52513;DHT22;38422;53.172;6.974;2023-04-03T14:24:48;17.90;49.20
52513;DHT22;38422;53.172;6.974;2023-04-03T14:29:50;18.00;49.60
52513;DHT22;38422;53.172;6.974;2023-04-03T14:32:17;18.00;49.90
52513;DHT22;38422;53.172;6.974;2023-04-03T14:34:46;18.00;49.60
52513;DHT22;38422;53.172;6.974;2023-04-03T14:37:17;18.00;50.20
52513;DHT22;38422;53.172;6.974;2023-04-03T14:39:44;17.90;50.10
52513;DHT22;38422;53.172;6.974;2023-04-03T14:42:16;18.00;50.30
52513;DHT22;38422;53.172;6.974;2023-04-03T14:44:42;18.00;50.10
52513;DHT22;38422;53.172;6.974;2023-04-03T14:47:14;18.10;50.20
52513;DHT22;38422;53.172;6.974;2023-04-03T14:49:41;18.10;50.30
52513;DHT22;38422;53.172;6.974;2023-04-03T14:52:24;18.20;50.50
52513;DHT22;38422;53.172;6.974;2023-04-03T14:54:50;18.20;50.10
52513;DHT22;38422;53.172;6.974;2023-04-03T14:57:16;18.10;49.70
52513;DHT22;38422;53.172;6.974;2023-04-03T14:59:43;18.00;49.50
52513;DHT22;38422;53.172;6.974;2023-04-03T15:04:54;17.90;48.70
52513;DHT22;38422;53.172;6.974;2023-04-03T15:07:20;18.00;49.60
52513;DHT22;38422;53.172;6.974;2023-04-03T15:09:46;17.90;49.70
52513;DHT22;38422;53.172;6.974;2023-04-03T15:12:12;17.90;49.70
52513;DHT22;38422;53.172;6.974;2023-04-03T15:14:38;17.70;49.40
52513;DHT22;38422;53.172;6.974;2023-04-03T15:17:05;17.70;49.50
52513;DHT22;38422;53.172;6.974;2023-04-03T15:19:37;17.60;49.70
52513;DHT22;38422;53.172;6.974;2023-04-03T15:22:03;17.60;49.10
52513;DHT22;38422;53.172;6.974;2023-04-03T15:24:29;17.50;48.60
52513;DHT22;38422;53.172;6.974;2023-04-03T15:26:55;17.40;48.70
52513;DHT22;38422;53.172;6.974;2023-04-03T15:29:20;17.30;48.90
52513;DHT22;38422;53.172;6.974;2023-04-03T15:31:46;17.30;48.90
52513;DHT22;38422;53.172;6.974;2023-04-03T15:34:12;17.20;49.00
52513;DHT22;38422;53.172;6.974;2023-04-03T15:36:40;17.10;48.90
52513;DHT22;38422;53.172;6.974;2023-04-03T15:39:06;17.10;49.30
52513;DHT22;38422;53.172;6.974;2023-04-03T15:41:32;17.00;49.30
52513;DHT22;38422;53.172;6.974;2023-04-03T15:43:58;16.90;49.50
52513;DHT22;38422;53.172;6.974;2023-04-03T15:46:23;16.80;49.30
52513;DHT22;38422;53.172;6.974;2023-04-03T15:48:49;16.70;49.60
52513;DHT22;38422;53.172;6.974;2023-04-03T15:51:15;16.40;49.00
52513;DHT22;38422;53.172;6.974;2023-04-03T15:53:41;16.20;49.40
52513;DHT22;38422;53.172;6.974;2023-04-03T15:56:07;16.10;49.50
52513;DHT22;38422;53.172;6.974;2023-04-03T15:58:35;16.00;49.90
52513;DHT22;38422;53.172;6.974;2023-04-03T16:01:01;16.00;50.30
52513;DHT22;38422;53.172;6.974;2023-04-03T16:03:27;16.00;50.30
52513;DHT22;38422;53.172;6.974;2023-04-03T16:05:53;16.00;50.10
52513;DHT22;38422;53.172;6.974;2023-04-03T16:08:20;15.90;50.30
52513;DHT22;38422;53.172;6.974;2023-04-03T16:10:46;15.80;50.30
52513;DHT22;38422;53.172;6.974;2023-04-03T16:13:13;15.50;50.00
52513;DHT22;38422;53.172;6.974;2023-04-03T16:15:40;15.30;50.20
52513;DHT22;38422;53.172;6.974;2023-04-03T16:18:08;15.10;50.30
52513;DHT22;38422;53.172;6.974;2023-04-03T16:20:34;14.90;50.90
52513;DHT22;38422;53.172;6.974;2023-04-03T16:23:00;14.60;50.80
52513;DHT22;38422;53.172;6.974;2023-04-03T16:25:26;14.40;51.00
52513;DHT22;38422;53.172;6.974;2023-04-03T16:27:55;14.10;51.10
52513;DHT22;38422;53.172;6.974;2023-04-03T16:30:21;14.00;51.60
52513;DHT22;38422;53.172;6.974;2023-04-03T16:32:47;14.00;52.10
52513;DHT22;38422;53.172;6.974;2023-04-03T16:35:13;13.90;52.20
52513;DHT22;38422;53.172;6.974;2023-04-03T16:37:39;13.90;52.60
52513;DHT22;38422;53.172;6.974;2023-04-03T16:40:06;13.80;52.60
52513;DHT22;38422;53.172;6.974;2023-04-03T16:42:32;13.70;52.50
52513;DHT22;38422;53.172;6.974;2023-04-03T16:44:58;13.60;53.10
52513;DHT22;38422;53.172;6.974;2023-04-03T16:47:26;13.50;53.00
52513;DHT22;38422;53.172;6.974;2023-04-03T16:49:52;13.50;53.20
52513;DHT22;38422;53.172;6.974;2023-04-03T16:52:17;13.40;53.30
52513;DHT22;38422;53.172;6.974;2023-04-03T16:54:43;13.30;53.50
52513;DHT22;38422;53.172;6.974;2023-04-03T16:57:09;13.30;53.90
52513;DHT22;38422;53.172;6.974;2023-04-03T16:59:34;13.20;54.30
52513;DHT22;38422;53.172;6.974;2023-04-03T17:02:00;13.20;54.30
52513;DHT22;38422;53.172;6.974;2023-04-03T17:04:26;13.20;54.20
52513;DHT22;38422;53.172;6.974;2023-04-03T17:06:52;13.10;54.10
52513;DHT22;38422;53.172;6.974;2023-04-03T17:09:17;13.00;54.10
52513;DHT22;38422;53.172;6.974;2023-04-03T17:11:43;12.80;54.00
52513;DHT22;38422;53.172;6.974;2023-04-03T17:14:09;12.70;54.20
52513;DHT22;38422;53.172;6.974;2023-04-03T17:16:37;12.60;54.50
52513;DHT22;38422;53.172;6.974;2023-04-03T17:19:03;12.50;54.70
52513;DHT22;38422;53.172;6.974;2023-04-03T17:21:29;12.40;55.40
52513;DHT22;38422;53.172;6.974;2023-04-03T17:24:02;12.30;54.90
52513;DHT22;38422;53.172;6.974;2023-04-03T17:26:28;12.20;55.40
52513;DHT22;38422;53.172;6.974;2023-04-03T17:28:55;12.20;55.40
52513;DHT22;38422;53.172;6.974;2023-04-03T17:31:21;12.10;55.60
52513;DHT22;38422;53.172;6.974;2023-04-03T17:33:47;12.10;55.90
52513;DHT22;38422;53.172;6.974;2023-04-03T17:36:13;12.00;55.90
52513;DHT22;38422;53.172;6.974;2023-04-03T17:38:39;11.90;56.20
52513;DHT22;38422;53.172;6.974;2023-04-03T17:41:07;11.80;56.50
52513;DHT22;38422;53.172;6.974;2023-04-03T17:43:34;11.70;56.50
52513;DHT22;38422;53.172;6.974;2023-04-03T17:46:01;11.70;56.90